createdAt,value
2023-01-11T00:00:43.204Z,22.04
2023-01-11T00:03:13.944Z,22.08
2023-01-11T00:05:45.835Z,22.04
2023-01-11T00:08:16.139Z,22.00
2023-01-11T00:10:45.869Z,21.79
2023-01-11T00:13:16.506Z,21.80
2023-01-11T00:15:46.747Z,21.85
2023-01-11T00:18:16.943Z,21.93
2023-01-11T00:20:46.638Z,21.87
2023-01-11T00:23:16.505Z,21.76
2023-01-11T00:25:46.248Z,21.57
2023-01-11T00:28:16.181Z,21.67
2023-01-11T00:30:46.047Z,21.73
2023-01-11T00:33:16.249Z,21.62
2023-01-11T00:35:46.112Z,21.72
2023-01-11T00:38:35.962Z,21.62
2023-01-11T00:41:26.026Z,21.67
2023-01-11T00:44:14.316Z,21.75
2023-01-11T00:47:03.353Z,21.75
2023-01-11T00:49:34.023Z,21.79
2023-01-11T00:52:06.769Z,21.59
2023-01-11T00:54:40.750Z,21.53
2023-01-11T00:57:11.341Z,21.47
2023-01-11T00:59:41.794Z,21.42
2023-01-11T01:02:13.662Z,21.46
2023-01-11T01:04:43.977Z,21.55
2023-01-11T01:07:14.116Z,21.72
2023-01-11T01:09:44.243Z,21.83
2023-01-11T01:12:34.191Z,21.89
2023-01-11T01:15:04.724Z,21.92
2023-01-11T01:17:34.992Z,21.96
2023-01-11T01:20:05.797Z,22.00
2023-01-11T01:22:36.543Z,21.94
2023-01-11T01:25:07.079Z,21.77
2023-01-11T01:27:37.286Z,21.69
2023-01-11T01:30:07.692Z,21.70
2023-01-11T01:32:37.891Z,21.53
2023-01-11T01:35:09.469Z,21.59
2023-01-11T01:37:39.862Z,21.57
2023-01-11T01:40:10.709Z,21.70
2023-01-11T01:42:40.905Z,21.69
2023-01-11T01:45:17.011Z,21.70
2023-01-11T01:47:58.059Z,21.60
2023-01-11T01:50:36.463Z,21.47
2023-01-11T01:53:15.965Z,21.55
2023-01-11T01:55:50.711Z,21.57
2023-01-11T01:58:24.524Z,21.76
2023-01-11T02:00:54.928Z,21.69
2023-01-11T02:03:28.517Z,21.62
2023-01-11T02:05:58.748Z,21.69
2023-01-11T02:08:35.253Z,21.73
2023-01-11T02:11:26.217Z,21.66
2023-01-11T02:13:58.027Z,21.63
2023-01-11T02:16:28.435Z,21.63
2023-01-11T02:19:00.009Z,21.69
2023-01-11T02:21:52.310Z,21.82
2023-01-11T02:24:34.347Z,21.72
2023-01-11T02:27:28.795Z,21.70
2023-01-11T02:30:03.672Z,21.77
2023-01-11T02:32:38.446Z,21.82
2023-01-11T02:35:45.155Z,21.90
2023-01-11T02:38:34.803Z,21.90
2023-01-11T02:41:21.526Z,21.87
2023-01-11T02:44:23.513Z,21.62
2023-01-11T02:47:00.419Z,21.57
2023-01-11T02:49:37.955Z,21.47
2023-01-11T02:52:22.116Z,21.38
2023-01-11T02:54:56.994Z,21.43
2023-01-11T02:57:30.664Z,21.52
2023-01-11T03:00:02.240Z,21.59
2023-01-11T03:02:32.551Z,21.67
2023-01-11T03:05:02.788Z,21.75
2023-01-11T03:07:44.685Z,21.63
2023-01-11T03:10:42.479Z,21.63
2023-01-11T03:13:33.657Z,21.59
2023-01-11T03:16:25.438Z,21.59
2023-01-11T03:18:55.696Z,21.50
2023-01-11T03:21:52.141Z,21.49
2023-01-11T03:24:34.799Z,21.59
2023-01-11T03:27:16.860Z,21.65
2023-01-11T03:29:59.306Z,21.47
2023-01-11T03:32:39.110Z,21.47
2023-01-11T03:35:27.794Z,21.46
2023-01-11T03:38:14.603Z,21.47
2023-01-11T03:40:51.282Z,21.36
2023-01-11T03:43:24.843Z,21.38
2023-01-11T03:46:13.190Z,21.25
2023-01-11T03:49:01.530Z,21.22
2023-01-11T03:51:36.880Z,21.34
2023-01-11T03:54:09.969Z,21.24
2023-01-11T03:57:03.251Z,21.14
2023-01-11T03:59:34.122Z,21.16
2023-01-11T04:02:04.593Z,21.15
2023-01-11T04:04:34.821Z,21.14
2023-01-11T04:07:04.768Z,21.15
2023-01-11T04:09:35.188Z,21.09
2023-01-11T04:12:06.861Z,21.04
2023-01-11T04:14:37.017Z,21.09
2023-01-11T04:17:07.339Z,21.14
2023-01-11T04:19:37.103Z,21.19
2023-01-11T04:22:07.243Z,21.25
2023-01-11T04:24:37.363Z,21.28
2023-01-11T04:27:10.737Z,21.26
2023-01-11T04:29:41.632Z,21.24
2023-01-11T04:32:11.358Z,21.19
2023-01-11T04:34:41.206Z,21.19
2023-01-11T04:37:13.254Z,21.16
2023-01-11T04:39:43.511Z,21.12
2023-01-11T04:42:22.879Z,20.95
2023-01-11T04:44:53.804Z,20.91
2023-01-11T04:47:25.775Z,20.90
2023-01-11T04:49:56.043Z,20.94
2023-01-11T04:52:25.746Z,21.02
2023-01-11T04:54:55.712Z,21.04
2023-01-11T04:57:26.827Z,20.85
2023-01-11T04:59:57.072Z,20.81
2023-01-11T05:02:26.756Z,20.78
2023-01-11T05:04:56.668Z,20.84
2023-01-11T05:07:26.649Z,20.87
2023-01-11T05:09:56.633Z,20.87
2023-01-11T05:12:27.031Z,20.90
2023-01-11T05:14:58.340Z,20.90
2023-01-11T05:17:28.611Z,20.84
2023-01-11T05:19:58.358Z,20.83
2023-01-11T05:22:28.352Z,20.83
2023-01-11T05:24:58.007Z,20.83
2023-01-11T05:27:28.048Z,20.80
2023-01-11T05:29:58.180Z,20.77
2023-01-11T05:32:28.455Z,20.77
2023-01-11T05:34:58.143Z,20.77
2023-01-11T05:37:28.337Z,20.77
2023-01-11T05:39:58.695Z,20.74
2023-01-11T05:42:28.657Z,20.68
2023-01-11T05:45:16.629Z,20.57
2023-01-11T05:47:47.356Z,20.40
2023-01-11T05:50:17.958Z,20.24
2023-01-11T05:52:48.304Z,20.15
2023-01-11T05:55:18.065Z,20.22
2023-01-11T05:57:48.526Z,20.37
2023-01-11T06:00:19.339Z,20.44
2023-01-11T06:02:49.823Z,20.47
2023-01-11T06:05:20.154Z,20.37
2023-01-11T06:07:49.855Z,20.16
2023-01-11T06:10:20.820Z,20.03
2023-01-11T06:13:14.038Z,20.13
2023-01-11T06:15:44.683Z,20.24
2023-01-11T06:18:14.949Z,20.32
2023-01-11T06:20:44.730Z,20.33
2023-01-11T06:23:14.581Z,20.32
2023-01-11T06:25:45.435Z,20.09
2023-01-11T06:28:16.389Z,20.17
2023-01-11T06:30:52.325Z,20.22
2023-01-11T06:33:23.975Z,20.24
2023-01-11T06:35:54.897Z,20.17
2023-01-11T06:38:26.990Z,20.15
2023-01-11T06:41:01.838Z,20.17
2023-01-11T06:43:33.498Z,20.22
2023-01-11T06:46:04.022Z,20.05
2023-01-11T06:48:34.253Z,20.03
2023-01-11T06:51:04.544Z,19.96
2023-01-11T06:53:34.135Z,20.03
2023-01-11T06:56:04.319Z,20.13
2023-01-11T06:58:34.084Z,20.19
2023-01-11T07:01:04.764Z,20.20
2023-01-11T07:03:35.126Z,20.19
2023-01-11T07:06:05.960Z,20.23
2023-01-11T07:08:36.135Z,20.23
2023-01-11T07:11:06.461Z,20.30
2023-01-11T07:13:36.926Z,20.17
2023-01-11T07:16:07.464Z,20.10
2023-01-11T07:18:38.518Z,20.00
2023-01-11T07:21:08.829Z,19.89
2023-01-11T07:23:38.670Z,19.89
2023-01-11T07:26:08.635Z,19.96
2023-01-11T07:28:38.391Z,19.87
2023-01-11T07:31:08.335Z,19.66
2023-01-11T07:33:38.002Z,19.65
2023-01-11T07:36:08.516Z,19.55
2023-01-11T07:38:38.711Z,19.68
2023-01-11T07:41:28.960Z,19.82
2023-01-11T07:43:59.368Z,19.87
2023-01-11T07:46:29.777Z,19.74
2023-01-11T07:49:00.016Z,19.64
2023-01-11T07:51:29.809Z,19.65
2023-01-11T07:54:03.673Z,19.58
2023-01-11T07:56:34.407Z,19.54
2023-01-11T07:59:04.555Z,19.57
2023-01-11T08:01:34.960Z,19.59
2023-01-11T08:04:06.592Z,19.47
2023-01-11T08:06:36.793Z,19.41
2023-01-11T08:09:06.617Z,19.34
2023-01-11T08:11:54.870Z,19.45
2023-01-11T08:14:43.543Z,19.39
2023-01-11T08:17:17.297Z,19.36
2023-01-11T08:19:47.613Z,19.50
2023-01-11T08:22:19.354Z,19.51
2023-01-11T08:24:49.710Z,19.44
2023-01-11T08:27:19.425Z,19.48
2023-01-11T08:29:49.285Z,19.47
2023-01-11T08:32:19.649Z,19.51
2023-01-11T08:34:50.000Z,19.55
2023-01-11T08:37:19.768Z,19.57
2023-01-11T08:39:49.986Z,19.59
2023-01-11T08:42:20.201Z,19.54
2023-01-11T08:44:51.392Z,19.55
2023-01-11T08:47:21.711Z,19.54
2023-01-11T08:49:51.534Z,19.61
2023-01-11T08:52:21.814Z,19.66
2023-01-11T08:54:52.085Z,19.68
2023-01-11T08:57:22.286Z,19.72
2023-01-11T08:59:52.371Z,19.52
2023-01-11T09:02:22.881Z,19.44
2023-01-11T09:04:52.997Z,19.58
2023-01-11T09:07:23.146Z,19.58
2023-01-11T09:09:53.475Z,19.61
2023-01-11T09:12:23.719Z,19.65
2023-01-11T09:14:53.853Z,19.74
2023-01-11T09:17:24.194Z,19.82
2023-01-11T09:19:54.602Z,19.85
2023-01-11T09:22:25.084Z,19.87
2023-01-11T09:24:55.326Z,19.92
2023-01-11T09:27:25.528Z,20.00
2023-01-11T09:29:55.846Z,20.08
2023-01-11T09:32:25.591Z,20.15
2023-01-11T09:34:59.057Z,20.02
2023-01-11T09:37:29.536Z,20.16
2023-01-11T09:40:18.015Z,20.23
2023-01-11T09:42:55.774Z,20.33
2023-01-11T09:45:32.793Z,20.39
2023-01-11T09:48:24.357Z,20.40
2023-01-11T09:50:54.969Z,20.40
2023-01-11T09:53:36.942Z,20.53
2023-01-11T09:56:14.479Z,20.63
2023-01-11T09:58:54.814Z,20.73
2023-01-11T10:01:44.196Z,20.78
2023-01-11T10:04:34.787Z,20.85
2023-01-11T10:07:26.188Z,20.90
2023-01-11T10:18:38.956Z,21.06
2023-01-11T10:19:50.497Z,21.22
2023-01-11T10:22:32.851Z,21.34
2023-01-11T10:25:35.693Z,21.42
2023-01-11T10:28:21.256Z,21.56
2023-01-11T10:31:00.546Z,21.66
2023-01-11T10:34:09.445Z,21.69
2023-01-11T10:37:20.132Z,21.76
2023-01-11T10:40:20.221Z,21.86
2023-01-11T10:43:04.885Z,22.00
2023-01-11T10:45:51.480Z,22.11
2023-01-11T10:48:28.672Z,22.18
2023-01-11T10:51:28.550Z,22.33
2023-01-11T10:54:15.203Z,22.35
2023-01-11T10:57:21.912Z,22.45
2023-01-11T11:00:23.906Z,22.62
2023-01-11T11:03:15.534Z,22.67
2023-01-11T11:06:21.845Z,22.82
2023-01-11T11:08:57.752Z,22.91
2023-01-11T11:11:27.880Z,22.99
2023-01-11T11:14:01.121Z,23.05
2023-01-11T11:16:55.244Z,23.13
2023-01-11T11:19:31.729Z,23.29
2023-01-11T11:22:01.723Z,23.46
2023-01-11T11:24:45.820Z,23.50
2023-01-11T11:27:34.649Z,23.63
2023-01-11T11:30:05.707Z,23.75
2023-01-11T11:32:42.727Z,23.85
2023-01-11T11:35:35.729Z,24.05
2023-01-11T11:38:06.677Z,24.11
2023-01-11T11:40:39.523Z,24.22
2023-01-11T11:43:12.630Z,24.36
2023-01-11T11:45:57.384Z,24.52
2023-01-11T11:48:33.505Z,24.49
2023-01-11T11:51:07.016Z,24.63
2023-01-11T11:54:06.146Z,24.77
2023-01-11T11:56:42.996Z,24.96
2023-01-11T11:59:18.367Z,25.02
2023-01-11T12:01:57.119Z,25.02
2023-01-11T12:04:48.506Z,25.17
2023-01-11T12:07:22.407Z,25.38
2023-01-11T12:10:10.942Z,25.50
2023-01-11T12:12:55.643Z,25.68
2023-01-11T12:15:34.139Z,25.81
2023-01-11T12:18:29.634Z,25.91
2023-01-11T12:21:24.245Z,25.82
2023-01-11T12:24:09.827Z,25.98
2023-01-11T12:26:55.981Z,26.15
2023-01-11T12:29:28.938Z,26.20
2023-01-11T12:32:20.019Z,26.29
2023-01-11T12:35:11.178Z,26.35
2023-01-11T12:38:22.191Z,26.46
2023-01-11T12:41:09.603Z,26.65
2023-01-11T12:43:54.949Z,26.95
2023-01-11T12:46:49.748Z,27.12
2023-01-11T12:49:34.790Z,27.35
2023-01-11T12:52:13.942Z,27.58
2023-01-11T12:54:55.183Z,27.76
2023-01-11T12:58:11.010Z,27.93
2023-01-11T13:01:01.157Z,28.23
2023-01-11T13:04:05.044Z,28.36
2023-01-11T13:06:57.801Z,28.40
2023-01-11T13:09:50.854Z,28.44
2023-01-11T13:12:46.954Z,28.61
2023-01-11T13:15:29.208Z,28.67
2023-01-11T13:18:16.902Z,28.91
2023-01-11T13:21:01.732Z,29.08
2023-01-11T13:23:59.339Z,29.29
2023-01-11T13:26:44.316Z,29.18
2023-01-11T13:29:32.573Z,29.30
2023-01-11T13:32:07.345Z,29.40
2023-01-11T13:34:40.785Z,29.52
2023-01-11T13:37:39.461Z,29.60
2023-01-11T13:40:18.668Z,29.70
2023-01-11T13:42:56.136Z,29.78
2023-01-11T13:45:36.798Z,29.97
2023-01-11T13:48:16.373Z,29.80
2023-01-11T13:51:05.791Z,30.01
2023-01-11T13:53:38.932Z,30.14
2023-01-11T13:56:34.700Z,30.23
2023-01-11T13:59:13.960Z,30.32
2023-01-11T14:01:54.875Z,30.44
2023-01-11T14:04:42.232Z,30.55
2023-01-11T14:07:38.770Z,30.61
2023-01-11T14:10:29.883Z,30.61
2023-01-11T14:13:06.264Z,30.69
2023-01-11T14:15:52.732Z,31.00
2023-01-11T14:18:42.995Z,31.53
2023-01-11T14:21:50.682Z,31.63
2023-01-11T14:24:22.886Z,31.34
2023-01-11T14:27:13.069Z,31.38
2023-01-11T14:30:07.778Z,31.37
2023-01-11T14:32:46.827Z,31.70
2023-01-11T14:35:25.866Z,31.87
2023-01-11T14:38:23.750Z,32.01
2023-01-11T14:41:25.069Z,32.11
2023-01-11T14:44:13.297Z,32.12
2023-01-11T14:47:16.420Z,32.08
2023-01-11T14:49:59.080Z,32.25
2023-01-11T14:52:40.075Z,32.48
2023-01-11T14:55:25.811Z,32.87
2023-01-11T14:57:59.056Z,33.00
2023-01-11T15:00:29.253Z,33.27
2023-01-11T15:03:02.293Z,33.23
2023-01-11T15:05:32.705Z,32.91
2023-01-11T15:08:27.739Z,33.30
2023-01-11T15:11:01.100Z,32.87
2023-01-11T15:13:45.989Z,32.94
2023-01-11T15:16:45.159Z,33.13
2023-01-11T15:19:34.280Z,33.08
2023-01-11T15:22:07.190Z,33.34
2023-01-11T15:24:44.717Z,33.62
2023-01-11T15:27:33.541Z,33.62
2023-01-11T15:30:05.714Z,33.65
2023-01-11T15:32:37.469Z,33.65
2023-01-11T15:35:35.611Z,33.47
2023-01-11T15:38:14.903Z,33.40
2023-01-11T15:40:47.736Z,33.91
2023-01-11T15:43:36.370Z,34.13
2023-01-11T15:46:51.903Z,34.43
2023-01-11T15:49:43.798Z,34.27
2023-01-11T15:52:51.975Z,34.22
2023-01-11T15:55:43.356Z,34.76
2023-01-11T15:58:31.595Z,34.64
2023-01-11T16:01:29.833Z,34.64
2023-01-11T16:04:06.772Z,33.78
2023-01-11T16:06:58.363Z,34.19
2023-01-11T16:09:56.159Z,34.50
2023-01-11T16:12:49.931Z,34.52
2023-01-11T16:15:41.603Z,34.55
2023-01-11T16:18:21.852Z,34.52
2023-01-11T16:21:03.130Z,34.87
2023-01-11T16:23:35.268Z,34.66
2023-01-11T16:26:06.537Z,34.52
2023-01-11T16:28:37.105Z,34.73
2023-01-11T16:31:07.686Z,34.43
2023-01-11T16:33:38.022Z,34.59
2023-01-11T16:36:23.027Z,34.35
2023-01-11T16:39:07.745Z,34.70
2023-01-11T16:42:07.015Z,34.76
2023-01-11T16:45:03.397Z,34.84
2023-01-11T16:47:33.705Z,35.15
2023-01-11T16:50:16.094Z,35.51
2023-01-11T16:52:56.005Z,35.21
2023-01-11T16:55:54.004Z,35.13
2023-01-11T16:58:29.993Z,35.52
2023-01-11T17:01:09.776Z,35.44
2023-01-11T17:03:50.069Z,33.81
2023-01-11T17:06:23.203Z,33.71
2023-01-11T17:08:57.788Z,34.17
2023-01-11T17:11:34.132Z,34.46
2023-01-11T17:14:13.946Z,34.87
2023-01-11T17:16:48.639Z,35.24
2023-01-11T17:19:25.202Z,35.08
2023-01-11T17:22:23.279Z,35.42
2023-01-11T17:25:03.903Z,35.79
2023-01-11T17:27:42.711Z,35.88
2023-01-11T17:30:17.619Z,35.74
2023-01-11T17:32:50.843Z,35.89
2023-01-11T17:35:29.124Z,35.93
2023-01-11T17:38:07.606Z,35.37
2023-01-11T17:40:42.261Z,35.13
2023-01-11T17:43:47.821Z,35.38
2023-01-11T17:46:21.366Z,35.82
2023-01-11T17:49:02.345Z,35.79
2023-01-11T17:51:35.258Z,35.69
2023-01-11T17:54:05.631Z,35.59
2023-01-11T17:56:44.772Z,35.55
2023-01-11T17:59:38.867Z,35.39
2023-01-11T18:02:16.048Z,35.41
2023-01-11T18:04:46.429Z,35.71
2023-01-11T18:07:21.202Z,35.76
2023-01-11T18:10:00.406Z,35.41
2023-01-11T18:12:35.426Z,35.55
2023-01-11T18:15:08.617Z,35.47
2023-01-11T18:17:41.493Z,35.59
2023-01-11T18:20:17.520Z,35.65
2023-01-11T18:23:15.035Z,35.39
2023-01-11T18:25:47.603Z,35.58
2023-01-11T18:28:22.288Z,35.84
2023-01-11T18:30:59.505Z,35.66
2023-01-11T18:33:35.841Z,35.56
2023-01-11T18:36:19.999Z,35.88
2023-01-11T18:38:51.738Z,36.03
2023-01-11T18:41:40.261Z,36.03
2023-01-11T18:44:11.918Z,35.64
2023-01-11T18:46:42.439Z,35.49
2023-01-11T18:49:12.658Z,35.33
2023-01-11T18:51:46.448Z,35.30
2023-01-11T18:54:19.021Z,35.49
2023-01-11T18:56:49.331Z,35.61
2023-01-11T18:59:19.498Z,35.72
2023-01-11T19:01:59.072Z,35.54
2023-01-11T19:04:38.298Z,35.47
2023-01-11T19:07:08.268Z,35.62
2023-01-11T19:09:38.664Z,35.42
2023-01-11T19:12:09.367Z,35.23
2023-01-11T19:14:39.469Z,35.35
2023-01-11T19:17:11.356Z,35.42
2023-01-11T19:19:41.810Z,35.68
2023-01-11T19:22:12.736Z,35.58
2023-01-11T19:24:43.189Z,35.42
2023-01-11T19:27:14.846Z,35.33
2023-01-11T19:29:45.063Z,35.39
2023-01-11T19:32:16.920Z,35.52
2023-01-11T19:34:47.312Z,35.39
2023-01-11T19:37:17.733Z,35.28
2023-01-11T19:39:48.217Z,35.21
2023-01-11T19:42:18.510Z,35.33
2023-01-11T19:44:48.424Z,35.25
2023-01-11T19:47:18.827Z,35.38
2023-01-11T19:49:49.166Z,35.37
2023-01-11T19:52:22.247Z,35.30
2023-01-11T19:54:52.848Z,35.39
2023-01-11T19:57:23.522Z,35.31
2023-01-11T19:59:53.867Z,35.24
2023-01-11T20:02:24.210Z,35.27
2023-01-11T20:04:54.562Z,35.17
2023-01-11T20:07:24.991Z,35.31
2023-01-11T20:09:55.116Z,35.44
2023-01-11T20:12:25.246Z,35.42
2023-01-11T20:14:57.991Z,35.65
2023-01-11T20:18:05.164Z,35.39
2023-01-11T20:20:35.909Z,35.31
2023-01-11T20:23:06.235Z,35.35
2023-01-11T20:25:36.158Z,35.66
2023-01-11T20:28:06.669Z,35.62
2023-01-11T20:30:36.839Z,35.30
2023-01-11T20:33:07.668Z,35.23
2023-01-11T20:35:39.109Z,35.06
2023-01-11T20:38:09.362Z,35.19
2023-01-11T20:40:42.271Z,35.03
2023-01-11T20:43:12.805Z,35.13
2023-01-11T20:45:43.069Z,35.07
2023-01-11T20:48:13.269Z,34.93
2023-01-11T20:50:43.467Z,34.45
2023-01-11T20:53:16.198Z,33.99
2023-01-11T20:55:46.809Z,33.72
2023-01-11T20:58:16.894Z,33.55
2023-01-11T21:00:47.141Z,33.30
2023-01-11T21:03:17.885Z,33.28
2023-01-11T21:05:48.287Z,33.31
2023-01-11T21:08:18.301Z,33.28
2023-01-11T21:10:48.421Z,33.07
2023-01-11T21:13:18.624Z,32.83
2023-01-11T21:15:48.864Z,32.80
2023-01-11T21:18:19.136Z,32.65
2023-01-11T21:20:50.917Z,32.59
2023-01-11T21:23:21.822Z,32.53
2023-01-11T21:25:51.978Z,32.39
2023-01-11T21:28:22.432Z,32.28
2023-01-11T21:30:52.708Z,32.24
2023-01-11T21:33:23.703Z,32.14
2023-01-11T21:35:54.106Z,31.82
2023-01-11T21:38:24.114Z,31.74
2023-01-11T21:40:54.336Z,31.55
2023-01-11T21:43:24.573Z,31.29
2023-01-11T21:45:58.246Z,31.06
2023-01-11T21:48:28.723Z,30.85
2023-01-11T21:50:59.587Z,30.64
2023-01-11T21:53:34.468Z,30.41
2023-01-11T21:56:09.264Z,30.28
2023-01-11T21:58:39.540Z,29.94
2023-01-11T22:01:15.322Z,29.72
2023-01-11T22:03:45.526Z,29.70
2023-01-11T22:06:19.168Z,29.64
2023-01-11T22:08:49.556Z,29.60
2023-01-11T22:11:20.338Z,29.53
2023-01-11T22:13:50.774Z,29.23
2023-01-11T22:16:21.123Z,29.01
2023-01-11T22:18:51.406Z,28.91
2023-01-11T22:21:22.071Z,28.82
2023-01-11T22:23:56.390Z,28.72
2023-01-11T22:26:27.888Z,28.72
2023-01-11T22:29:13.654Z,28.60
2023-01-11T22:31:56.546Z,28.44
2023-01-11T22:34:27.142Z,28.27
2023-01-11T22:36:58.177Z,28.23
2023-01-11T22:39:30.656Z,28.23
2023-01-11T22:42:01.320Z,28.14
2023-01-11T22:44:31.786Z,28.10
2023-01-11T22:47:02.094Z,28.06
2023-01-11T22:49:33.235Z,28.07
2023-01-11T22:52:03.615Z,28.13
2023-01-11T22:54:33.854Z,28.06
2023-01-11T22:57:03.968Z,27.86
2023-01-11T22:59:34.157Z,27.85
2023-01-11T23:02:04.546Z,27.89
2023-01-11T23:04:34.944Z,27.78
2023-01-11T23:07:06.172Z,27.66
2023-01-11T23:09:36.461Z,27.61
2023-01-11T23:12:25.742Z,27.53
2023-01-11T23:14:55.842Z,27.53
2023-01-11T23:17:25.819Z,27.46
2023-01-11T23:19:55.527Z,27.45
2023-01-11T23:22:25.350Z,27.46
2023-01-11T23:24:55.336Z,27.51
2023-01-11T23:27:25.550Z,27.41
2023-01-11T23:29:56.037Z,27.39
2023-01-11T23:32:26.215Z,27.35
2023-01-11T23:34:56.613Z,27.35
2023-01-11T23:37:26.707Z,27.31
2023-01-11T23:39:56.790Z,27.22
2023-01-11T23:42:30.179Z,27.18
2023-01-11T23:45:00.451Z,27.14
2023-01-11T23:47:32.613Z,27.05
2023-01-11T23:50:03.119Z,27.08
2023-01-11T23:52:34.372Z,27.01
2023-01-11T23:55:04.735Z,26.94
2023-01-11T23:57:34.905Z,26.94
